F/V Berceaudelocean — FQEB — position and weather

sailwx.info

Track history (hours):
 
Tides and Currents Weather Stations Pressure Air Temp Water Temp Dewpoint Dewpoint Depression Visibility Wind Speed Wind Dir Waves Ship Positions

F/V Berceaudelocean

Last reported at 2018-Jun-18 19:00 UTC. Time now 2018-Jun-18 19:06 UTC.
Position N 47°45' W 003°35'.

Type: Fishing. MMSI: 228156900.

Date/timePositionNaut miles runAvg speedWind from/ knotsBaromVisibWave heightAir tempDewpointWater temp
2018-Jun-18 19:00N 47°45' W 003°35'0 0.7
2018-Jun-18 18:31N 47°45' W 003°34'4 7.5
2018-Jun-18 18:01N 47°45' W 003°40'1 1.5
2018-Jun-18 17:31N 47°45' W 003°41'4 7.2
2018-Jun-18 17:00N 47°46' W 003°46'9 0.4
2018-Jun-17 21:44N 47°51' W 003°57'9 7.0
2018-Jun-17 20:30N 47°46' W 003°46'0 0.8
2018-Jun-17 19:57N 47°46' W 003°47'1 1.5
2018-Jun-17 19:28N 47°46' W 003°48'2 3.2
2018-Jun-17 18:52N 47°44' W 003°47'1 3.1
2018-Jun-17 18:25N 47°45' W 003°45'1 1.1
2018-Jun-17 17:53N 47°46' W 003°46'0 0.2
2018-Jun-17 17:30N 47°46' W 003°46'4 7.4
2018-Jun-17 16:56N 47°46' W 003°52'  
2018-Jun-14 22:32N 47°46' W 003°49'1 9.7
2018-Jun-14 22:27N 47°46' W 003°48'2 2.6
2018-Jun-14 21:42N 47°47' W 003°45'0 0.2
2018-Jun-14 21:30N 47°47' W 003°45'1 1.2
2018-Jun-14 20:45N 47°46' W 003°44'0 0.7
2018-Jun-14 20:25N 47°46' W 003°44'1 1.3
2018-Jun-14 19:55N 47°46' W 003°43'1 1.9
2018-Jun-14 19:28N 47°45' W 003°43'0 1.0
2018-Jun-14 19:00N 47°45' W 003°43'0 0.9
2018-Jun-14 18:30N 47°46' W 003°44'0 0.9
2018-Jun-14 18:00N 47°46' W 003°45'1 1.9
2018-Jun-14 17:30N 47°46' W 003°46'5 7.3
2018-Jun-14 16:45N 47°47' W 003°54'8 0.4
2018-Jun-13 20:28N 47°45' W 003°42'4 8.1
2018-Jun-13 19:59N 47°44' W 003°37'1 2.5
2018-Jun-13 19:30N 47°45' W 003°37'1 1.1
2018-Jun-13 19:00N 47°45' W 003°36'4 7.3
2018-Jun-13 18:30N 47°43' W 003°32'1 3.0
2018-Jun-13 18:00N 47°44' W 003°33'5 9.2
2018-Jun-13 17:29N 47°45' W 003°40'10 0.2
2018-Jun-11 22:30N 47°49' W 003°54'4 8.2
2018-Jun-11 22:00N 47°46' W 003°50'5 9.1
2018-Jun-11 21:30N 47°46' W 003°43'4 8.9
2018-Jun-11 21:00N 47°45' W 003°37'3 6.7
2018-Jun-11 20:30N 47°44' W 003°32'1 1.2
2018-Jun-11 20:00N 47°44' W 003°32'1 2.6
2018-Jun-11 19:30N 47°45' W 003°34'1 1.1
2018-Jun-11 19:00N 47°45' W 003°33'5 9.1
2018-Jun-11 18:30N 47°45' W 003°40'13 0.7
2018-Jun-11 00:25N 47°51' W 003°57'1 0.8
2018-Jun-10 22:33N 47°49' W 003°57'3 1.0
2018-Jun-10 19:33N 47°47' W 003°54'  
Track history (hours):
 
Tides and Currents Weather Stations Pressure Air Temp Water Temp Dewpoint Dewpoint Depression Visibility Wind Speed Wind Dir Waves Ship Positions

F/V Berceaudelocean

Last reported at 2018-Jun-18 19:00 UTC. Time now 2018-Jun-18 19:06 UTC.
Position N 47°45' W 003°35'.

Type: Fishing. MMSI: 228156900.

Date/timePositionNaut miles runAvg speedWind from/ knotsBaromVisibWave heightAir tempDewpointWater temp
2018-Jun-18 19:00N 47°45' W 003°35'0 0.7
2018-Jun-18 18:31N 47°45' W 003°34'4 7.5
2018-Jun-18 18:01N 47°45' W 003°40'1 1.5
2018-Jun-18 17:31N 47°45' W 003°41'4 7.2
2018-Jun-18 17:00N 47°46' W 003°46'9 0.4
2018-Jun-17 21:44N 47°51' W 003°57'9 7.0
2018-Jun-17 20:30N 47°46' W 003°46'0 0.8
2018-Jun-17 19:57N 47°46' W 003°47'1 1.5
2018-Jun-17 19:28N 47°46' W 003°48'2 3.2
2018-Jun-17 18:52N 47°44' W 003°47'1 3.1
2018-Jun-17 18:25N 47°45' W 003°45'1 1.1
2018-Jun-17 17:53N 47°46' W 003°46'0 0.2
2018-Jun-17 17:30N 47°46' W 003°46'4 7.4
2018-Jun-17 16:56N 47°46' W 003°52'  
2018-Jun-14 22:32N 47°46' W 003°49'1 9.7
2018-Jun-14 22:27N 47°46' W 003°48'2 2.6
2018-Jun-14 21:42N 47°47' W 003°45'0 0.2
2018-Jun-14 21:30N 47°47' W 003°45'1 1.2
2018-Jun-14 20:45N 47°46' W 003°44'0 0.7
2018-Jun-14 20:25N 47°46' W 003°44'1 1.3
2018-Jun-14 19:55N 47°46' W 003°43'1 1.9
2018-Jun-14 19:28N 47°45' W 003°43'0 1.0
2018-Jun-14 19:00N 47°45' W 003°43'0 0.9
2018-Jun-14 18:30N 47°46' W 003°44'0 0.9
2018-Jun-14 18:00N 47°46' W 003°45'1 1.9
2018-Jun-14 17:30N 47°46' W 003°46'5 7.3
2018-Jun-14 16:45N 47°47' W 003°54'8 0.4
2018-Jun-13 20:28N 47°45' W 003°42'4 8.1
2018-Jun-13 19:59N 47°44' W 003°37'1 2.5
2018-Jun-13 19:30N 47°45' W 003°37'1 1.1
2018-Jun-13 19:00N 47°45' W 003°36'4 7.3
2018-Jun-13 18:30N 47°43' W 003°32'1 3.0
2018-Jun-13 18:00N 47°44' W 003°33'5 9.2
2018-Jun-13 17:29N 47°45' W 003°40'10 0.2
2018-Jun-11 22:30N 47°49' W 003°54'4 8.2
2018-Jun-11 22:00N 47°46' W 003°50'5 9.1
2018-Jun-11 21:30N 47°46' W 003°43'4 8.9
2018-Jun-11 21:00N 47°45' W 003°37'3 6.7
2018-Jun-11 20:30N 47°44' W 003°32'1 1.2
2018-Jun-11 20:00N 47°44' W 003°32'1 2.6
2018-Jun-11 19:30N 47°45' W 003°34'1 1.1
2018-Jun-11 19:00N 47°45' W 003°33'5 9.1
2018-Jun-11 18:30N 47°45' W 003°40'13 0.7
2018-Jun-11 00:25N 47°51' W 003°57'1 0.8
2018-Jun-10 22:33N 47°49' W 003°57'3 1.0
2018-Jun-10 19:33N 47°47' W 003°54'  

Dump ship's entire track history